Terminal Aerodrome Forecast
Issued by NWS Wilmington, OH

Current Version | Previous Version | Text Only | Print | Product List | Glossary Off
Versions: 1 2 3 4 5 6 7 8 9 10 11 12 13 14 15 16 17 18 19

000
FTUS41 KILN 290409 AAB
TAFCMH
TAF AMD
KCMH 290409Z 2904/2924 07005KT P6SM SCT035 BKN150 BKN250
     FM290800 03005KT 4SM BR SCT080 BKN250
     FM291400 04006KT P6SM SCT040=

USA.gov is the U.S. government's official web portal to all federal, state and local government web resources and services.